Lisnaskea, United Kingdom
Current Conditions -  °F | °C
As of 8:00 AM on Tuesday 21 Oct 2014 (Local Time) from EISG Reporting Station
Broken Clouds Broken Clouds  
Wind Chill: 50°   Ceiling: 4100
Heat Index: 50°   Visibility: 6mi
Dew Point: 41°   Wind: 37mph
Humidity: 71%   Direction: 300°WNW
Pressure: 29.68"   Gusts: 49mph
Location:  54.25°N, 7.45°W
Report Text: EISG 210700Z 30032G43KT 9000 FEW021 SCT035 BKN041 10/05 Q1005
Loading
Personal Weather Stations






























Interactive Weather Map
Tropical Storm Tracking
New forecast layout! Learn more

10-Day Weather Forecast

Advertisements
Track Severe Weather on mobile